EDT,Max TemperatureF,Mean TemperatureF,Min TemperatureF,Max Dew PointF,MeanDew PointF,Min DewpointF,Max Humidity, Mean Humidity, Min Humidity, Max Sea Level PressureIn, Mean Sea Level PressureIn, Min Sea Level PressureIn, Max VisibilityMiles, Mean VisibilityMiles, Min VisibilityMiles, Max Wind SpeedMPH, Mean Wind SpeedMPH, Max Gust SpeedMPH,PrecipitationIn, CloudCover, Events, WindDirDegrees
2013-3-1,52,47,41,36,32,29,70,57,44,29.88,29.84,29.80,10,10,10,15,8,24,0.00,3,,318
2013-3-2,51,45,39,33,31,26,70,60,50,29.88,29.85,29.79,10,10,10,10,5,20,0.00,4,,350
2013-3-3,46,42,38,26,24,22,59,50,40,29.90,29.86,29.83,10,10,10,13,7,20,0.00,3,,317
2013-3-4,47,42,37,29,25,21,64,51,37,30.08,30.00,29.90,10,10,10,15,10,24,0.00,1,,306
2013-3-5,53,48,42,50,35,28,89,68,46,30.12,30.00,29.69,10,10,5,13,6,17,0.09,4,Rain,85
2013-3-6,57,49,41,54,41,30,93,76,58,29.78,29.54,29.47,10,8,2,31,20,54,0.15,7,Rain,272
2013-3-7,54,49,43,36,34,31,76,61,46,30.12,30.00,29.81,10,10,10,21,12,38,0.00,3,,340
2013-3-8,51,46,41,33,30,27,65,54,42,30.15,30.11,30.05,10,10,10,20,11,31,0.00,2,,332
2013-3-9,52,48,43,35,33,30,70,58,46,30.30,30.23,30.15,10,10,10,17,9,36,0.00,1,,15
2013-3-10,57,50,43,45,41,32,82,72,62,30.32,30.29,30.26,10,9,5,13,6,17,0.00,0,,35
2013-3-11,65,57,48,50,47,45,89,73,56,30.27,30.18,30.06,10,8,3,15,7,21,T,3,,113
2013-3-12,60,56,52,57,53,47,100,89,77,30.04,29.88,29.80,9,3,0,24,11,32,1.22,6,Fog-Rain,211
2013-3-13,56,49,42,54,40,34,96,74,52,30.03,29.95,29.84,10,10,6,18,8,32,0.00,3,,27
2013-3-14,50,45,40,32,26,21,57,46,34,30.17,30.11,30.03,10,10,10,15,10,25,0.00,2,,315
2013-3-15,54,44,34,44,32,24,75,57,39,30.17,30.08,29.96,10,10,10,21,10,29,0.00,0,,249
2013-3-16,64,59,53,51,49,44,83,70,56,29.94,29.83,29.73,10,8,5,24,13,36,0.00,2,,242
2013-3-17,58,53,47,52,47,42,96,84,72,30.17,30.01,29.84,10,8,1,20,11,32,T,6,,36
2013-3-18,72,61,49,59,50,45,93,80,66,30.14,30.06,29.92,10,10,7,17,7,28,0.00,7,,39
2013-3-19,63,59,54,59,54,47,93,75,56,29.95,29.83,29.78,10,7,0,15,8,22,0.32,5,Fog-Rain,277
2013-3-20,57,51,45,40,26,19,61,43,24,30.09,29.98,29.82,10,10,10,14,6,23,0.00,3,,47
2013-3-21,52,46,39,37,32,20,73,59,44,29.91,29.74,29.68,10,10,9,17,8,28,T,4,Rain,350
2013-3-22,48,42,35,34,21,13,65,48,31,30.07,30.01,29.92,10,10,10,16,7,26,0.00,0,,286
2013-3-23,54,47,40,39,35,31,83,65,46,30.04,30.00,29.94,10,10,10,12,5,17,0.00,3,,297
2013-3-24,60,50,40,57,46,29,93,70,46,29.96,29.63,29.43,10,7,2,25,11,39,0.32,6,Rain,65
2013-3-25,52,48,43,45,40,28,93,71,49,29.75,29.56,29.45,10,9,2,28,12,41,0.12,7,Rain,290
2013-3-26,52,47,42,33,30,27,60,51,41,30.03,29.89,29.76,10,10,10,21,11,31,0.00,2,,304
2013-3-27,54,49,43,34,31,26,67,53,38,30.15,30.09,30.03,10,10,10,15,9,24,0.00,1,,311
2013-3-28,55,47,38,36,30,28,82,60,38,30.24,30.16,30.12,10,10,10,15,8,23,0.00,2,,328
2013-3-29,55,48,40,40,34,29,82,60,38,30.30,30.25,30.21,10,10,10,10,5,18,0.00,0,,27
2013-3-30,59,48,37,46,41,34,92,72,51,30.25,30.20,30.15,10,10,7,10,5,16,0.00,2,,207
2013-3-31,62,56,49,53,48,38,86,74,61,30.17,30.00,29.88,10,9,6,18,10,26,T,4,,174